createdAt,value
2022-11-21T04:31:29.098Z,0.00
2022-11-21T04:32:29.116Z,0.00
2022-11-21T04:33:29.187Z,0.00
2022-11-21T04:34:29.318Z,0.00
2022-11-21T04:35:29.244Z,0.00
2022-11-21T04:36:29.389Z,0.00
2022-11-21T04:37:29.323Z,0.00
2022-11-21T04:38:29.413Z,0.00
2022-11-21T04:39:31.346Z,0.00
2022-11-21T04:40:52.551Z,0.00
2022-11-21T04:41:30.423Z,0.00
2022-11-21T04:42:29.556Z,0.00
2022-11-21T04:43:31.456Z,0.00
2022-11-21T04:44:29.956Z,0.00
2022-11-21T04:45:29.919Z,0.00
2022-11-21T04:46:29.748Z,0.00
2022-11-21T04:47:29.806Z,0.00
2022-11-21T04:48:29.812Z,0.00
2022-11-21T04:49:34.889Z,0.00
2022-11-21T04:50:30.887Z,0.00
2022-11-21T04:51:31.881Z,0.00
2022-11-21T04:52:33.910Z,0.00
2022-11-21T04:53:51.128Z,0.00
2022-11-21T04:54:33.375Z,0.00
2022-11-21T04:55:30.150Z,0.00
2022-11-21T04:56:31.890Z,0.00
2022-11-21T04:57:31.893Z,0.00
2022-11-21T04:58:41.074Z,0.00
2022-11-21T04:59:30.866Z,0.00
2022-11-21T05:00:30.429Z,0.00
2022-11-21T05:01:30.434Z,0.00
2022-11-21T05:02:30.435Z,0.00
2022-11-21T05:03:31.350Z,0.00
2022-11-21T05:04:31.375Z,0.00
2022-11-21T05:05:30.693Z,0.00
2022-11-21T05:06:30.626Z,0.00
2022-11-21T05:07:30.717Z,0.00
2022-11-21T05:08:31.857Z,0.00
2022-11-21T05:09:30.735Z,0.00
2022-11-21T05:10:31.352Z,0.00
2022-11-21T05:11:31.378Z,0.00
2022-11-21T05:12:30.867Z,0.00
2022-11-21T05:13:30.957Z,0.00
2022-11-21T05:14:30.948Z,0.00
2022-11-21T05:15:45.955Z,0.00
2022-11-21T05:16:31.152Z,0.00
2022-11-21T05:17:35.862Z,0.00
2022-11-21T05:18:33.844Z,0.00
2022-11-21T05:19:31.176Z,0.00
2022-11-21T05:20:35.758Z,0.00
2022-11-21T05:21:31.286Z,0.00
2022-11-21T05:22:32.380Z,0.00
2022-11-21T05:23:33.277Z,0.00
2022-11-21T05:24:31.518Z,0.00
2022-11-21T05:25:31.443Z,0.00
2022-11-21T05:26:32.366Z,0.00
2022-11-21T05:27:31.536Z,0.00
2022-11-21T05:28:31.571Z,0.00
2022-11-21T05:29:34.039Z,0.00
2022-11-21T05:30:52.695Z,0.00
2022-11-21T05:31:31.696Z,0.00
2022-11-21T05:32:34.096Z,0.00
2022-11-21T05:33:31.789Z,0.00
2022-11-21T05:34:31.888Z,0.00
2022-11-21T05:35:31.881Z,0.00
2022-11-21T05:36:33.358Z,0.00
2022-11-21T05:37:32.144Z,0.00
2022-11-21T05:38:32.962Z,0.00
2022-11-21T05:39:32.128Z,0.00
2022-11-21T05:40:32.095Z,0.00
2022-11-21T05:41:32.150Z,0.00
2022-11-21T05:42:32.209Z,0.00
2022-11-21T05:43:32.237Z,0.00
2022-11-21T05:44:32.310Z,0.00
2022-11-21T05:45:33.683Z,0.00
2022-11-21T05:46:32.367Z,0.00
2022-11-21T05:47:34.384Z,0.00
2022-11-21T05:48:32.496Z,0.00
2022-11-21T05:49:32.541Z,0.00
2022-11-21T05:50:32.538Z,0.00
2022-11-21T05:51:32.601Z,0.00
2022-11-21T05:52:32.634Z,0.00
2022-11-21T05:53:40.383Z,0.00
2022-11-21T05:54:32.841Z,0.00
2022-11-21T05:55:32.772Z,0.00
2022-11-21T05:56:33.380Z,0.00
2022-11-21T05:57:33.130Z,0.00
2022-11-21T05:58:32.902Z,0.00
2022-11-21T05:59:34.897Z,0.00
2022-11-21T06:00:32.998Z,0.00
2022-11-21T06:01:33.894Z,0.00
2022-11-21T06:02:33.078Z,0.00
2022-11-21T06:03:33.895Z,0.00
2022-11-21T06:04:33.169Z,0.00
2022-11-21T06:06:14.406Z,0.00
2022-11-21T06:06:46.142Z,0.00
2022-11-21T06:07:34.909Z,0.00
2022-11-21T06:10:18.070Z,0.00
2022-11-21T06:11:15.525Z,0.00
2022-11-21T06:12:21.405Z,0.00
2022-11-21T06:13:43.517Z,0.00
2022-11-21T06:14:15.437Z,0.00
2022-11-21T06:15:15.491Z,0.00
2022-11-21T06:16:22.438Z,0.00
2022-11-21T06:17:15.634Z,0.00
2022-11-21T07:44:14.459Z,28.13
2022-11-21T07:45:15.097Z,28.13
2022-11-21T07:46:14.527Z,28.13
2022-11-21T07:47:14.549Z,28.13
2022-11-21T07:48:14.596Z,28.13
2022-11-21T07:49:14.652Z,28.13
2022-11-21T07:50:19.777Z,28.13
2022-11-21T08:06:16.634Z,61.88
2022-11-21T08:06:49.635Z,56.25
2022-11-21T08:07:49.672Z,56.25
2022-11-21T08:08:50.243Z,45.00
2022-11-21T08:09:49.746Z,50.63
2022-11-21T08:10:49.834Z,61.88
2022-11-21T08:11:49.842Z,84.38
2022-11-21T08:12:49.882Z,101.25
2022-11-21T08:13:49.969Z,112.50
2022-11-21T08:14:49.963Z,123.75
2022-11-21T08:15:50.013Z,135.00
2022-11-21T08:16:50.722Z,140.63
2022-11-21T08:17:50.103Z,146.25
2022-11-21T08:18:50.175Z,151.88
2022-11-21T08:19:50.205Z,157.50
2022-11-21T08:20:50.262Z,151.88
2022-11-21T08:21:50.306Z,146.25
2022-11-21T08:22:51.219Z,135.00
2022-11-21T08:23:51.213Z,112.50
2022-11-21T08:24:50.414Z,84.38
2022-11-21T08:25:50.484Z,61.88
2022-11-21T08:26:50.529Z,56.25
2022-11-21T08:27:50.552Z,50.63
2022-11-21T08:28:52.377Z,45.00
2022-11-21T08:29:50.634Z,39.38
2022-11-21T08:30:51.215Z,33.75
2022-11-21T08:31:50.747Z,28.13
2022-11-21T08:32:50.769Z,28.13
2022-11-21T08:33:50.816Z,33.75
2022-11-21T08:34:50.882Z,33.75
2022-11-21T08:35:51.712Z,33.75
2022-11-21T08:36:50.948Z,33.75
2022-11-21T08:37:51.035Z,39.38
2022-11-21T08:38:51.044Z,39.38
2022-11-21T08:39:51.083Z,39.38
2022-11-21T08:40:51.129Z,45.00
2022-11-21T08:41:51.176Z,56.25
2022-11-21T08:42:51.269Z,67.50
2022-11-21T08:43:51.284Z,90.00
2022-11-21T08:44:51.301Z,112.50
2022-11-21T08:45:51.357Z,123.75
2022-11-21T08:46:51.400Z,123.75
2022-11-21T08:47:51.441Z,95.63
2022-11-21T08:48:51.548Z,67.50
2022-11-21T08:49:51.524Z,56.25
2022-11-21T08:50:51.573Z,50.63
2022-11-21T08:51:51.613Z,56.25
2022-11-21T08:52:51.670Z,61.88
2022-11-21T08:53:51.726Z,73.13
2022-11-21T08:54:51.757Z,67.50
2022-11-21T08:55:51.794Z,61.88
2022-11-21T08:56:51.842Z,73.13
2022-11-21T08:57:51.927Z,95.63
2022-11-21T08:58:51.941Z,118.13
2022-11-21T08:59:51.977Z,129.38
2022-11-21T09:00:52.033Z,129.38
2022-11-21T09:01:52.116Z,123.75
2022-11-21T09:02:52.157Z,106.88
2022-11-21T09:03:52.160Z,101.25
2022-11-21T09:04:52.204Z,95.63
2022-11-21T09:05:53.218Z,95.63
2022-11-21T09:06:52.297Z,101.25
2022-11-21T09:07:52.367Z,106.88
2022-11-21T09:08:52.400Z,101.25
2022-11-21T09:09:52.524Z,95.63
2022-11-21T09:10:52.496Z,95.63
2022-11-21T09:11:52.596Z,106.88
2022-11-21T09:12:52.681Z,101.25
2022-11-21T09:13:52.649Z,84.38
2022-11-21T09:14:52.714Z,78.75
2022-11-21T09:15:52.762Z,73.13
2022-11-21T09:16:53.562Z,67.50
2022-11-21T09:17:52.815Z,61.88
2022-11-21T09:18:52.879Z,56.25
2022-11-21T09:19:52.983Z,56.25
2022-11-21T09:20:52.976Z,56.25
2022-11-21T09:21:53.033Z,56.25
2022-11-21T09:22:53.076Z,67.50
2022-11-21T09:23:53.116Z,84.38
2022-11-21T09:24:53.212Z,101.25
2022-11-21T09:25:53.197Z,118.13
2022-11-21T09:26:53.234Z,135.00
2022-11-21T09:27:53.293Z,146.25
2022-11-21T09:28:53.411Z,151.88
2022-11-21T09:29:54.535Z,157.50
2022-11-21T09:30:53.441Z,163.13
2022-11-21T09:31:53.458Z,168.75
2022-11-21T09:32:53.507Z,191.25
2022-11-21T09:33:55.094Z,202.50
2022-11-21T09:34:53.607Z,208.13
2022-11-21T09:35:53.666Z,202.50
2022-11-21T09:36:53.760Z,202.50
2022-11-21T09:37:53.772Z,213.75
2022-11-21T09:38:53.826Z,219.38
2022-11-21T09:39:53.863Z,213.75
2022-11-21T09:40:54.771Z,191.25
2022-11-21T09:41:54.025Z,180.00
2022-11-21T09:42:53.967Z,185.63
2022-11-21T09:43:55.800Z,191.25
2022-11-21T09:44:54.075Z,202.50
2022-11-21T09:45:54.080Z,208.13
2022-11-21T09:46:54.181Z,208.13
2022-11-21T09:47:54.207Z,225.00
2022-11-21T09:48:54.307Z,225.00
2022-11-21T09:49:54.383Z,225.00
2022-11-21T09:50:54.435Z,213.75
2022-11-21T09:51:54.450Z,208.13
2022-11-21T09:52:54.448Z,196.88
2022-11-21T09:53:54.452Z,185.63
2022-11-21T09:54:54.553Z,174.38
2022-11-21T09:55:54.629Z,163.13
2022-11-21T09:56:54.645Z,157.50
2022-11-21T09:57:54.755Z,151.88
2022-11-21T09:58:54.810Z,151.88
2022-11-21T09:59:54.767Z,151.88
2022-11-21T10:00:54.895Z,151.88
2022-11-21T10:01:54.834Z,151.88
2022-11-21T10:02:54.909Z,146.25
2022-11-21T10:03:55.012Z,151.88
2022-11-21T10:04:55.008Z,163.13
2022-11-21T10:05:55.781Z,168.75
2022-11-21T10:06:55.042Z,163.13
2022-11-21T10:07:55.143Z,168.75
2022-11-21T10:08:55.235Z,163.13
2022-11-21T10:09:55.310Z,157.50
2022-11-21T10:10:55.291Z,146.25
2022-11-21T10:11:55.351Z,135.00
2022-11-21T10:12:55.368Z,129.38
2022-11-21T10:13:55.416Z,123.75
2022-11-21T10:14:55.532Z,140.63
2022-11-21T10:15:55.586Z,168.75
2022-11-21T10:16:55.556Z,196.88
2022-11-21T10:17:55.593Z,202.50
2022-11-21T10:18:55.623Z,286.88
2022-11-21T10:19:55.680Z,270.00
2022-11-21T10:20:55.724Z,230.63
2022-11-21T10:21:55.748Z,241.88
2022-11-21T10:22:55.797Z,258.75
2022-11-21T10:23:55.851Z,275.63
2022-11-21T10:24:55.918Z,303.75
2022-11-21T10:25:56.014Z,270.00
2022-11-21T10:26:55.968Z,241.88
2022-11-21T10:27:56.115Z,247.50
2022-11-21T10:28:56.078Z,331.88
2022-11-21T10:29:56.118Z,219.38
2022-11-21T10:30:56.229Z,191.25
2022-11-21T10:31:56.208Z,292.50
2022-11-21T10:32:56.286Z,208.13
2022-11-21T10:33:56.313Z,213.75
2022-11-21T10:34:56.355Z,253.13
2022-11-21T10:35:56.399Z,264.38
2022-11-21T10:36:56.448Z,213.75
2022-11-21T10:37:56.516Z,213.75
2022-11-21T10:38:56.560Z,241.88
2022-11-21T10:39:56.617Z,270.00
2022-11-21T10:40:56.634Z,292.50
2022-11-21T10:41:56.676Z,270.00
2022-11-21T10:42:56.733Z,230.63
2022-11-21T10:43:56.778Z,202.50
2022-11-21T10:44:56.839Z,196.88
2022-11-21T10:45:56.876Z,196.88
2022-11-21T10:46:56.913Z,208.13
2022-11-21T10:47:56.993Z,241.88
2022-11-21T10:48:57.005Z,258.75
2022-11-21T10:49:57.061Z,298.13
2022-11-21T10:50:57.128Z,326.25
2022-11-21T10:51:57.200Z,298.13
2022-11-21T10:52:57.297Z,275.63
2022-11-21T10:53:57.267Z,343.13
2022-11-21T10:54:57.354Z,382.50
2022-11-21T10:55:57.385Z,343.13
2022-11-21T10:56:57.509Z,275.63
2022-11-21T10:57:57.570Z,230.63
2022-11-21T10:58:57.548Z,225.00
2022-11-21T10:59:57.588Z,236.25
2022-11-21T11:00:57.749Z,247.50
2022-11-21T11:01:57.641Z,180.00
2022-11-21T11:02:57.736Z,157.50
2022-11-21T11:04:20.913Z,135.00
2022-11-21T11:04:58.138Z,151.88
2022-11-21T11:05:58.431Z,146.25
2022-11-21T11:06:57.865Z,135.00
2022-11-21T11:07:58.937Z,140.63
2022-11-21T11:08:58.844Z,151.88
2022-11-21T11:09:58.008Z,174.38
2022-11-21T11:10:58.058Z,174.38
2022-11-21T11:11:58.103Z,191.25
2022-11-21T11:13:01.598Z,174.38
2022-11-21T11:13:58.800Z,140.63
2022-11-21T11:14:58.242Z,123.75
2022-11-21T11:15:58.296Z,118.13
2022-11-21T11:16:58.350Z,118.13
2022-11-21T11:17:59.734Z,118.13
2022-11-21T11:18:58.608Z,106.88
2022-11-21T11:19:58.533Z,106.88
2022-11-21T11:20:59.267Z,106.88
2022-11-21T11:22:00.437Z,112.50
2022-11-21T11:22:58.669Z,112.50
2022-11-21T11:23:58.877Z,112.50
2022-11-21T11:25:01.001Z,112.50
2022-11-21T11:25:58.780Z,106.88
2022-11-21T11:26:58.851Z,106.88
2022-11-21T11:27:58.878Z,106.88
2022-11-21T11:28:58.932Z,106.88
2022-11-21T11:29:58.979Z,106.88
2022-11-21T11:30:59.215Z,112.50
2022-11-21T11:31:59.064Z,112.50
2022-11-21T11:32:59.102Z,112.50
2022-11-21T11:33:59.142Z,118.13
2022-11-21T11:34:59.191Z,123.75
2022-11-21T11:35:59.286Z,123.75
2022-11-21T11:36:59.289Z,123.75
2022-11-21T11:38:00.260Z,129.38
2022-11-21T11:38:59.438Z,129.38
2022-11-21T11:40:00.251Z,135.00
2022-11-21T11:40:59.546Z,140.63
2022-11-21T11:42:00.253Z,140.63
2022-11-21T11:42:59.561Z,140.63
2022-11-21T11:43:59.613Z,146.25
2022-11-21T11:44:59.687Z,146.25
2022-11-21T11:46:00.259Z,146.25
2022-11-21T11:46:59.765Z,146.25
2022-11-21T11:47:59.797Z,146.25
2022-11-21T11:49:29.712Z,146.25
2022-11-21T11:49:59.910Z,146.25
2022-11-21T11:51:00.747Z,151.88
2022-11-21T11:52:00.010Z,151.88
2022-11-21T11:53:00.032Z,146.25
2022-11-21T11:54:01.399Z,135.00
2022-11-21T11:55:00.802Z,135.00
2022-11-21T11:56:00.173Z,118.13
2022-11-21T11:57:00.249Z,118.13
2022-11-21T11:58:00.271Z,112.50
2022-11-21T11:59:00.369Z,106.88
2022-11-21T12:00:00.366Z,112.50
2022-11-21T12:01:01.254Z,106.88
2022-11-21T12:02:01.285Z,95.63
2022-11-21T12:03:00.562Z,101.25
2022-11-21T12:04:00.582Z,101.25
2022-11-21T12:05:01.250Z,106.88
2022-11-21T12:06:06.022Z,106.88
2022-11-21T12:09:01.791Z,118.13
2022-11-21T12:10:00.913Z,112.50
2022-11-21T12:11:01.072Z,112.50
2022-11-21T12:12:00.991Z,112.50
2022-11-21T12:13:01.058Z,112.50
2022-11-21T12:14:01.060Z,112.50
2022-11-21T12:15:01.150Z,112.50
2022-11-21T12:16:07.147Z,112.50
2022-11-21T12:17:01.759Z,112.50
2022-11-21T12:18:01.767Z,118.13
2022-11-21T12:19:01.806Z,118.13
2022-11-21T12:20:02.264Z,118.13
2022-11-21T12:21:01.391Z,118.13
2022-11-21T12:22:01.413Z,118.13
2022-11-21T12:23:01.459Z,118.13
2022-11-21T12:24:01.495Z,118.13
2022-11-21T12:25:01.543Z,118.13
2022-11-21T12:26:01.634Z,118.13
2022-11-21T12:27:01.651Z,118.13
2022-11-21T12:28:01.700Z,118.13
2022-11-21T12:29:01.742Z,118.13
2022-11-21T12:30:02.771Z,118.13
2022-11-21T12:31:01.855Z,112.50
2022-11-21T12:32:01.870Z,112.50
2022-11-21T12:33:07.884Z,106.88
2022-11-21T12:34:01.973Z,101.25
2022-11-21T12:35:02.018Z,95.63
2022-11-21T12:36:16.722Z,90.00
2022-11-21T12:37:02.760Z,90.00
2022-11-21T12:38:02.188Z,90.00
2022-11-21T12:39:02.237Z,84.38
2022-11-21T12:40:02.793Z,78.75
2022-11-21T12:41:03.280Z,73.13
2022-11-21T12:42:02.369Z,73.13
2022-11-21T12:43:02.397Z,67.50
2022-11-21T12:44:02.530Z,67.50
2022-11-21T12:45:02.494Z,67.50
2022-11-21T12:46:02.537Z,67.50
2022-11-21T12:47:02.570Z,67.50
2022-11-21T12:48:02.627Z,67.50
2022-11-21T12:49:02.700Z,67.50
2022-11-21T12:50:02.712Z,67.50
2022-11-21T12:51:02.799Z,67.50
2022-11-21T12:52:02.811Z,67.50
2022-11-21T12:53:02.852Z,67.50
2022-11-21T12:54:02.939Z,67.50
2022-11-21T12:55:02.965Z,61.88
2022-11-21T12:56:03.005Z,61.88
2022-11-21T12:57:03.044Z,61.88
2022-11-21T12:58:03.093Z,61.88
2022-11-21T12:59:03.166Z,61.88
2022-11-21T13:00:03.261Z,61.88
2022-11-21T13:01:04.345Z,61.88
2022-11-21T13:02:03.960Z,61.88
2022-11-21T20:18:19.280Z,0.00
2022-11-21T20:18:35.279Z,0.00
2022-11-21T20:19:35.315Z,0.00
2022-11-21T20:20:35.359Z,0.00
2022-11-21T20:21:35.395Z,0.00
2022-11-21T20:24:08.970Z,0.00
